Time;durP1;ratioP1;P1;durP2;ratioP2;P2;SDS_P1;SDS_P2;PMS_P1;PMS_P2;Temp;Humidity;BMP_temperature;BMP_pressure;BME280_temperature;BME280_humidity;BME280_pressure;Samples;Min_cycle;Max_cycle;Signal;HPM_P1;HPM_P2
2022/10/24 00:00:35;;;;;;;21.88;13.15;;;;;;;10.85;100.00;100235.41;4974975;28;20035;-85
2022/10/24 00:03:01;;;;;;;26.85;13.98;;;;;;;10.84;100.00;100233.03;4973515;28;20042;-84
2022/10/24 00:05:26;;;;;;;23.35;12.57;;;;;;;10.83;100.00;100245.75;4973789;28;20061;-84
2022/10/24 00:07:52;;;;;;;23.48;13.15;;;;;;;10.83;100.00;100252.25;4975054;28;20084;-83
2022/10/24 00:10:18;;;;;;;28.83;12.63;;;;;;;10.89;100.00;100264.56;4973658;28;20071;-84
2022/10/24 00:12:44;;;;;;;22.13;12.57;;;;;;;10.86;100.00;100247.63;4973642;28;20105;-82
2022/10/24 00:15:10;;;;;;;18.75;13.07;;;;;;;10.91;100.00;100269.81;4973765;28;20067;-85
2022/10/24 00:17:35;;;;;;;20.27;13.48;;;;;;;10.84;100.00;100290.22;4957410;28;20027;-83
2022/10/24 00:20:01;;;;;;;23.27;13.57;;;;;;;10.95;100.00;100313.25;4975175;28;20034;-83
2022/10/24 00:22:26;;;;;;;22.00;12.65;;;;;;;10.93;100.00;100295.81;4957248;28;20027;-83
2022/10/24 00:24:52;;;;;;;23.83;13.65;;;;;;;11.01;100.00;100299.84;4974815;28;20134;-83
2022/10/24 00:27:17;;;;;;;21.15;12.38;;;;;;;11.06;100.00;100284.06;4977031;28;20037;-85
2022/10/24 00:29:43;;;;;;;20.40;11.73;;;;;;;10.98;100.00;100257.94;4980355;28;20464;-84
2022/10/24 00:32:08;;;;;;;19.85;12.25;;;;;;;11.09;100.00;100263.03;4980210;28;20090;-84
2022/10/24 00:34:34;;;;;;;20.67;12.30;;;;;;;10.98;100.00;100220.78;4980102;28;20041;-83
2022/10/24 00:36:59;;;;;;;21.42;12.40;;;;;;;11.07;100.00;100228.47;4963865;28;20029;-84
2022/10/24 00:39:25;;;;;;;19.90;11.52;;;;;;;11.16;100.00;100254.09;4981541;28;20031;-84
2022/10/24 00:41:53;;;;;;;22.17;12.07;;;;;;;11.10;100.00;100250.31;4980427;28;20415;-83
2022/10/24 00:44:26;;;;;;;19.70;11.38;;;;;;;10.98;100.00;100223.63;4980059;28;20027;-83
2022/10/24 00:47:01;;;;;;;28.45;12.70;;;;;;;11.29;100.00;100266.75;4981843;28;20480;-84
2022/10/24 00:49:33;;;;;;;15.85;10.88;;;;;;;11.20;100.00;100248.94;4980086;28;20089;-85
2022/10/24 00:52:00;;;;;;;;;;;;;;;11.36;100.00;100259.84;4964161;28;20023;-84
2022/10/24 00:54:25;;;;;;;19.17;12.10;;;;;;;11.39;100.00;100255.97;4963891;28;19909;-85
2022/10/24 00:57:05;;;;;;;18.80;12.55;;;;;;;11.46;100.00;100231.88;4980178;28;20046;-84
2022/10/24 00:59:32;;;;;;;21.65;12.07;;;;;;;11.40;100.00;100218.28;4980381;28;20018;-85
2022/10/24 01:01:58;;;;;;;22.25;12.30;;;;;;;11.48;100.00;100223.56;4980196;28;20019;-84
2022/10/24 01:04:23;;;;;;;19.85;12.68;;;;;;;11.50;100.00;100235.28;4979698;28;20364;-84
2022/10/24 01:06:55;;;;;;;19.17;12.63;;;;;;;11.48;100.00;100235.78;4961423;28;20023;-84
2022/10/24 01:09:38;;;;;;;21.15;12.98;;;;;;;11.51;100.00;100236.88;4978893;28;20034;-83
2022/10/24 01:12:10;;;;;;;18.90;12.80;;;;;;;11.49;100.00;100223.06;4978884;28;20033;-82
2022/10/24 01:14:44;;;;;;;17.92;12.75;;;;;;;11.47;100.00;100225.63;4979154;28;20042;-84
2022/10/24 01:17:31;;;;;;;22.77;13.50;;;;;;;11.30;100.00;100211.13;4977678;28;20042;-84
2022/10/24 01:20:26;;;;;;;19.92;13.75;;;;;;;11.44;100.00;100234.44;4978675;28;20030;-84
2022/10/24 01:23:11;;;;;;;18.67;12.65;;;;;;;11.42;100.00;100220.63;4978410;28;20031;-84
2022/10/24 01:26:28;;;;;;;20.05;13.73;;;;;;;11.39;100.00;100196.66;4977692;28;20085;-85
2022/10/24 01:29:10;;;;;;;19.70;13.15;;;;;;;11.33;100.00;100198.66;4956010;28;20038;-85
2022/10/24 01:31:43;;;;;;;22.77;13.13;;;;;;;11.16;100.00;100160.50;4961229;28;20380;-84
2022/10/24 01:34:47;;;;;;;22.67;13.43;;;;;;;11.29;100.00;100183.00;4978718;28;20030;-84
2022/10/24 01:37:16;;;;;;;20.45;12.52;;;;;;;11.20;100.00;100171.72;4966233;28;20506;-84
2022/10/24 01:39:59;;;;;;;21.27;14.68;;;;;;;11.14;100.00;100159.41;4975270;28;20023;-83
2022/10/24 01:42:26;;;;;;;19.35;13.43;;;;;;;11.15;100.00;100158.91;4960272;28;20022;-84
2022/10/24 01:44:54;;;;;;;18.75;12.88;;;;;;;11.12;100.00;100164.88;4959915;28;20030;-83
2022/10/24 01:47:28;;;;;;;19.52;12.30;;;;;;;11.13;100.00;100169.28;4976093;28;20122;-84
2022/10/24 01:49:57;;;;;;;19.90;11.38;;;;;;;11.14;100.00;100165.91;4960045;28;20178;-84
2022/10/24 01:52:27;;;;;;;20.35;12.50;;;;;;;11.12;100.00;100144.84;4960265;28;20121;-84
2022/10/24 01:54:53;;;;;;;18.95;11.98;;;;;;;10.98;100.00;100127.22;4960330;28;20383;-85
2022/10/24 01:57:18;;;;;;;20.05;12.60;;;;;;;10.95;100.00;100124.56;4960700;28;20041;-84
2022/10/24 01:59:46;;;;;;;22.52;12.77;;;;;;;10.94;100.00;100111.56;4981415;28;20031;-85
2022/10/24 02:02:29;;;;;;;17.88;11.70;;;;;;;11.15;100.00;100127.47;4979683;28;20026;-84
2022/10/24 02:05:20;;;;;;;18.23;10.88;;;;;;;11.15;100.00;100136.03;4961427;28;20030;-85
2022/10/24 02:07:48;;;;;;;16.92;11.90;;;;;;;11.16;100.00;100151.91;4961947;28;20030;-85
2022/10/24 02:10:35;;;;;;;18.40;11.15;;;;;;;10.94;100.00;100123.78;4960861;28;20058;-84
2022/10/24 02:13:08;;;;;;;16.20;11.43;;;;;;;11.20;100.00;100160.28;4977378;28;20472;-85
2022/10/24 02:15:44;;;;;;;16.98;11.38;;;;;;;11.15;100.00;100138.13;4977456;28;20023;-84
2022/10/24 02:18:10;;;;;;;15.25;11.15;;;;;;;11.25;100.00;100157.50;4977491;28;20114;-85
2022/10/24 02:20:42;;;;;;;17.02;10.88;;;;;;;11.29;100.00;100169.50;4961112;28;20027;-84
2022/10/24 02:23:17;;;;;;;;;;;;;;;11.32;100.00;100159.13;4961453;28;20046;-84
2022/10/24 02:25:45;;;;;;;14.23;10.27;;;;;;;11.26;100.00;100159.06;4976648;28;19970;-85
2022/10/24 02:28:18;;;;;;;16.15;10.20;;;;;;;11.34;100.00;100160.19;4976974;28;20034;-85
2022/10/24 02:30:48;;;;;;;13.55;9.15;;;;;;;11.38;100.00;100142.81;4977848;28;20019;-84
2022/10/24 02:33:14;;;;;;;14.10;9.60;;;;;;;11.16;100.00;100123.31;4960278;28;20392;-84
2022/10/24 02:35:40;;;;;;;17.48;10.20;;;;;;;11.39;100.00;100148.03;4976493;28;20027;-81
2022/10/24 02:38:30;;;;;;;13.10;9.85;;;;;;;11.39;100.00;100153.75;4959653;28;20435;-84
2022/10/24 02:40:57;;;;;;;11.70;8.40;;;;;;;11.38;100.00;100157.09;4963962;28;20035;-83
2022/10/24 02:43:22;;;;;;;12.55;9.18;;;;;;;11.26;100.00;100135.41;4974976;28;20027;-81
2022/10/24 02:45:50;;;;;;;11.90;9.02;;;;;;;11.49;100.00;100154.38;4975205;28;20042;-84
2022/10/24 02:48:17;;;;;;;10.32;7.95;;;;;;;11.53;100.00;100142.72;4975005;28;20098;-84
2022/10/24 02:50:43;;;;;;;13.73;7.60;;;;;;;11.47;100.00;100139.78;4974984;28;20023;-85
2022/10/24 02:53:12;;;;;;;10.52;7.30;;;;;;;11.53;100.00;100134.13;4975372;28;20033;-84
2022/10/24 02:55:38;;;;;;;10.38;6.85;;;;;;;11.64;100.00;100142.84;4975076;28;20027;-84
2022/10/24 02:58:03;;;;;;;10.05;7.35;;;;;;;11.58;100.00;100130.53;4974878;28;20081;-84
2022/10/24 03:00:29;;;;;;;9.45;7.28;;;;;;;11.72;100.00;100149.69;4974919;28;20030;-84
2022/10/24 03:02:54;;;;;;;10.65;7.93;;;;;;;11.75;100.00;100145.81;4976468;28;20143;-83
2022/10/24 03:05:20;;;;;;;8.07;6.65;;;;;;;11.66;100.00;100125.97;4975128;28;20033;-83
2022/10/24 03:07:45;;;;;;;8.77;6.90;;;;;;;11.79;100.00;100146.38;4976296;28;20034;-83
2022/10/24 03:10:10;;;;;;;11.15;7.53;;;;;;;11.66;100.00;100129.59;4974835;28;20117;-85
2022/10/24 03:12:36;;;;;;;10.55;6.90;;;;;;;11.75;100.00;100137.22;4974765;28;20460;-85
2022/10/24 03:15:01;;;;;;;9.63;7.43;;;;;;;11.56;100.00;100115.97;4975011;28;20023;-85
2022/10/24 03:17:27;;;;;;;9.38;8.25;;;;;;;11.59;100.00;100138.63;4976033;28;20031;-85
2022/10/24 03:19:52;;;;;;;10.77;8.15;;;;;;;11.58;100.00;100128.47;4975732;28;20022;-85
2022/10/24 03:22:21;;;;;;;10.13;7.88;;;;;;;11.42;100.00;100102.56;4958855;28;20055;-84
2022/10/24 03:24:46;;;;;;;11.15;7.82;;;;;;;11.57;100.00;100126.09;4976111;28;20058;-84
2022/10/24 03:27:11;;;;;;;8.63;6.65;;;;;;;11.61;100.00;100138.91;4974662;28;20559;-84
2022/10/24 03:29:37;;;;;;;7.35;5.85;;;;;;;11.43;100.00;100092.66;4958589;28;20030;-84
2022/10/24 03:32:02;;;;;;;8.38;6.13;;;;;;;11.64;100.00;100122.81;4975904;28;20357;-83
2022/10/24 03:34:28;;;;;;;11.68;6.15;;;;;;;11.68;100.00;100120.50;4958291;28;20025;-83
2022/10/24 03:36:53;;;;;;;8.57;6.10;;;;;;;11.66;100.00;100117.38;4975538;28;20031;-84
2022/10/24 03:39:19;;;;;;;8.15;6.47;;;;;;;11.69;100.00;100125.72;4974256;28;20027;-84
2022/10/24 03:41:44;;;;;;;8.90;6.15;;;;;;;11.68;100.00;100115.56;4974352;28;20018;-83
2022/10/24 03:44:09;;;;;;;7.55;6.13;;;;;;;11.64;100.00;100115.00;4958729;28;20539;-83
2022/10/24 03:46:35;;;;;;;9.18;6.40;;;;;;;11.60;100.00;100105.06;4976006;28;20022;-84
2022/10/24 03:49:00;;;;;;;9.07;6.68;;;;;;;11.64;100.00;100117.06;4974134;28;20131;-84
2022/10/24 03:51:26;;;;;;;8.40;6.88;;;;;;;11.58;100.00;100096.97;4975255;28;20053;-84
2022/10/24 03:53:51;;;;;;;7.57;5.90;;;;;;;11.71;100.00;100119.50;4957843;28;20117;-83
2022/10/24 03:56:16;;;;;;;9.75;5.88;;;;;;;11.65;100.00;100112.94;4958039;28;20049;-84
2022/10/24 03:58:42;;;;;;;8.02;6.03;;;;;;;11.58;100.00;100105.56;4958308;28;20050;-83
2022/10/24 04:01:09;;;;;;;8.95;5.63;;;;;;;11.56;100.00;100096.72;4973669;28;20019;-84
2022/10/24 04:03:34;;;;;;;6.72;5.40;;;;;;;11.70;100.00;100095.03;4957644;28;20427;-83
2022/10/24 04:06:00;;;;;;;6.10;4.88;;;;;;;11.79;100.00;100101.34;4973976;28;20460;-84
2022/10/24 04:08:25;;;;;;;6.78;4.70;;;;;;;11.91;100.00;100099.41;4974987;28;20031;-82
2022/10/24 04:10:50;;;;;;;5.13;4.10;;;;;;;11.88;100.00;100086.06;4974513;28;20272;-83
2022/10/24 04:13:16;;;;;;;5.00;3.80;;;;;;;11.97;100.00;100094.47;4957587;28;20058;-84
2022/10/24 04:15:42;;;;;;;8.07;5.00;;;;;;;12.00;100.00;100098.41;4975015;28;20071;-85
2022/10/24 04:18:08;;;;;;;6.82;4.70;;;;;;;12.12;100.00;100100.06;4975183;28;20022;-84
2022/10/24 04:20:35;;;;;;;7.18;4.82;;;;;;;12.17;100.00;100108.69;4973613;28;20031;-84
2022/10/24 04:23:01;;;;;;;5.13;4.13;;;;;;;12.21;100.00;100102.72;4974709;28;20075;-84
2022/10/24 04:25:27;;;;;;;5.93;4.72;;;;;;;12.21;100.00;100097.78;4957432;28;20468;-84
2022/10/24 04:27:52;;;;;;;5.25;4.50;;;;;;;12.26;100.00;100102.00;4957576;28;20030;-82
2022/10/24 04:30:19;;;;;;;8.73;4.47;;;;;;;12.20;100.00;100101.97;4975311;28;20027;-82
2022/10/24 04:32:45;;;;;;;8.85;6.30;;;;;;;12.28;100.00;100113.75;4974725;28;20029;-84
2022/10/24 04:35:14;;;;;;;8.20;4.93;;;;;;;12.31;100.00;100114.81;4973590;28;20023;-83
2022/10/24 04:37:39;;;;;;;6.78;4.43;;;;;;;12.31;100.00;100129.13;4975049;28;20027;-85
2022/10/24 04:40:06;;;;;;;6.53;4.63;;;;;;;12.25;100.00;100117.63;4974681;28;20435;-83
2022/10/24 04:42:32;;;;;;;7.47;5.32;;;;;;;12.25;100.00;100114.75;4974875;28;20436;-83
2022/10/24 04:44:59;;;;;;;6.00;4.65;;;;;;;12.33;100.00;100130.19;4957377;28;20121;-83
2022/10/24 04:47:26;;;;;;;8.15;4.95;;;;;;;12.23;100.00;100100.94;4974533;28;20476;-83
2022/10/24 04:49:53;;;;;;;7.85;5.07;;;;;;;12.22;100.00;100122.28;4974112;28;20035;-85
2022/10/24 04:52:18;;;;;;;4.78;4.20;;;;;;;12.30;100.00;100134.09;4975068;28;20034;-83
2022/10/24 04:54:45;;;;;;;5.22;4.35;;;;;;;12.38;100.00;100135.19;4977054;28;20031;-84
2022/10/24 04:57:12;;;;;;;5.60;4.18;;;;;;;12.40;100.00;100120.38;4975725;28;20368;-83
2022/10/24 04:59:38;;;;;;;5.80;3.75;;;;;;;12.41;100.00;100134.16;4976519;28;20105;-84
2022/10/24 05:02:04;;;;;;;4.55;4.07;;;;;;;12.40;100.00;100134.69;4975044;28;20074;-84
2022/10/24 05:04:31;;;;;;;9.70;4.20;;;;;;;12.44;100.00;100140.97;4975702;28;20530;-82
2022/10/24 05:07:02;;;;;;;13.15;5.13;;;;;;;12.44;100.00;100130.31;4976964;28;20105;-82
2022/10/24 05:09:29;;;;;;;6.88;4.60;;;;;;;12.43;100.00;100128.72;4979293;28;20034;-83
2022/10/24 05:11:55;;;;;;;6.10;4.10;;;;;;;12.45;100.00;100139.69;4978618;28;20046;-82
2022/10/24 05:14:21;;;;;;;7.05;4.82;;;;;;;12.31;100.00;100124.16;4977712;28;20061;-85
2022/10/24 05:16:48;;;;;;;6.80;4.55;;;;;;;12.45;100.00;100151.94;4978411;28;20425;-87
2022/10/24 05:19:15;;;;;;;5.72;4.72;;;;;;;12.45;100.00;100159.75;4978993;28;20023;-84
2022/10/24 05:21:42;;;;;;;6.82;4.35;;;;;;;12.41;100.00;100141.97;4978065;28;20043;-88
2022/10/24 05:24:10;;;;;;;6.57;4.75;;;;;;;12.49;100.00;100141.03;4979994;28;20029;-86
2022/10/24 05:26:37;;;;;;;7.95;4.85;;;;;;;12.30;100.00;100113.25;4963125;28;20472;-87
2022/10/24 05:29:03;;;;;;;8.70;4.25;;;;;;;12.49;100.00;100134.50;4978683;28;20041;-86
2022/10/24 05:31:31;;;;;;;8.70;4.93;;;;;;;12.48;100.00;100127.97;4988772;28;20023;-83
2022/10/24 05:33:56;;;;;;;9.13;5.35;;;;;;;12.55;100.00;100141.06;4997735;28;20022;-86
2022/10/24 05:36:21;;;;;;;6.55;5.78;;;;;;;12.57;100.00;100135.59;4999496;28;20029;-86
2022/10/24 05:38:47;;;;;;;10.23;5.50;;;;;;;12.49;100.00;100120.97;4998947;28;20026;-84
2022/10/24 05:41:12;;;;;;;8.82;5.95;;;;;;;12.55;100.00;100129.59;4999310;28;20488;-82
2022/10/24 05:43:38;;;;;;;7.07;5.28;;;;;;;12.63;100.00;100142.16;5000077;28;20015;-85
2022/10/24 05:46:03;;;;;;;13.00;5.30;;;;;;;12.62;100.00;100146.31;5001878;28;20030;-84
2022/10/24 05:48:28;;;;;;;12.52;5.88;;;;;;;12.59;100.00;100142.41;4985160;28;20031;-83
2022/10/24 05:50:57;;;;;;;12.52;5.45;;;;;;;12.64;100.00;100155.19;4999635;28;20026;-80
2022/10/24 05:53:24;;;;;;;10.25;5.72;;;;;;;12.65;100.00;100153.91;4999438;28;20362;-79
2022/10/24 05:55:50;;;;;;;17.38;5.97;;;;;;;12.65;100.00;100153.91;4999460;28;20006;-80
2022/10/24 05:58:19;;;;;;;11.57;6.30;;;;;;;12.68;100.00;100162.25;4999344;28;20042;-84
2022/10/24 06:00:46;;;;;;;9.48;5.95;;;;;;;12.69;100.00;100155.22;4998536;28;20030;-83
2022/10/24 06:03:11;;;;;;;14.40;6.50;;;;;;;12.74;100.00;100161.50;4981193;28;20042;-80
2022/10/24 06:05:36;;;;;;;10.02;6.35;;;;;;;12.75;100.00;100172.44;4998769;28;20089;-83
2022/10/24 06:08:02;;;;;;;11.00;6.95;;;;;;;12.69;100.00;100151.59;5000340;28;20025;-85
2022/10/24 06:10:27;;;;;;;8.75;6.72;;;;;;;12.83;100.00;100164.16;5001316;28;20026;-84
2022/10/24 06:12:53;;;;;;;10.50;6.63;;;;;;;12.78;100.00;100162.84;4980220;28;20094;-86
2022/10/24 06:15:18;;;;;;;9.70;6.90;;;;;;;12.74;100.00;100138.56;4974185;28;20428;-84
2022/10/24 06:17:45;;;;;;;14.43;6.38;;;;;;;12.95;100.00;100157.19;4943576;28;20062;-80
2022/10/24 06:20:12;;;;;;;13.18;6.95;;;;;;;13.01;100.00;100164.53;4975764;28;20449;-81
2022/10/24 06:22:40;;;;;;;272.13;34.95;;;;;;;13.07;100.00;100171.09;4988980;28;20070;-79
2022/10/24 06:25:16;;;;;;;173.15;27.27;;;;;;;13.11;100.00;100165.88;4988935;28;20015;-79
2022/10/24 06:27:42;;;;;;;111.35;17.15;;;;;;;13.19;100.00;100163.34;4983725;28;20182;-86
2022/10/24 06:30:10;;;;;;;150.82;24.27;;;;;;;13.26;100.00;100167.78;4971570;28;20058;-81
2022/10/24 06:32:40;;;;;;;155.82;27.02;;;;;;;13.34;100.00;100180.34;4957535;28;20103;-80
2022/10/24 06:35:07;;;;;;;75.82;14.18;;;;;;;13.38;100.00;100175.94;4976173;28;20035;-81
2022/10/24 06:37:33;;;;;;;86.75;13.85;;;;;;;13.47;100.00;100183.53;4976661;28;20054;-81
2022/10/24 06:39:58;;;;;;;68.45;12.55;;;;;;;13.55;100.00;100184.63;4956062;28;20473;-81
2022/10/24 06:42:25;;;;;;;30.83;8.35;;;;;;;13.64;100.00;100192.25;4965206;28;20027;-82
2022/10/24 06:44:52;;;;;;;33.10;8.65;;;;;;;13.68;100.00;100179.19;4957873;29;20034;-81
2022/10/24 06:47:17;;;;;;;18.42;5.63;;;;;;;13.76;100.00;100179.47;4957510;29;20055;-78
2022/10/24 06:49:52;;;;;;;20.27;5.53;;;;;;;13.83;100.00;100174.03;4958377;29;20090;-82
2022/10/24 06:52:18;;;;;;;51.17;9.68;;;;;;;13.89;100.00;100174.00;4976322;28;20062;-82
2022/10/24 06:54:45;;;;;;;29.67;5.70;;;;;;;13.97;100.00;100173.00;4976566;28;20042;-81
2022/10/24 06:57:11;;;;;;;13.98;4.78;;;;;;;14.00;100.00;100168.28;4976622;28;20049;-85
2022/10/24 06:59:38;;;;;;;71.00;13.23;;;;;;;14.10;100.00;100169.59;4976872;28;20034;-81
2022/10/24 07:02:03;;;;;;;35.40;6.00;;;;;;;14.19;100.00;100169.34;4977443;28;20026;-86
2022/10/24 07:04:30;;;;;;;26.85;5.88;;;;;;;14.28;100.00;100166.22;4976273;28;20373;-82
2022/10/24 07:06:56;;;;;;;14.63;4.28;;;;;;;14.36;100.00;100173.03;4975590;28;20419;-83
2022/10/24 07:09:22;;;;;;;7.55;4.10;;;;;;;14.45;100.00;100171.97;4976679;28;20026;-84
2022/10/24 07:11:48;;;;;;;26.05;6.35;;;;;;;14.52;100.00;100168.59;4966847;28;20082;-83
2022/10/24 07:14:14;;;;;;;29.30;6.45;;;;;;;14.65;100.00;100177.47;4964463;28;20206;-81
2022/10/24 07:16:39;;;;;;;17.80;4.43;;;;;;;14.65;100.00;100183.22;4965004;28;20484;-80
2022/10/24 07:19:07;;;;;;;53.90;10.75;;;;;;;14.79;100.00;100179.28;4975323;28;20058;-79
2022/10/24 07:21:33;;;;;;;34.28;8.77;;;;;;;14.90;100.00;100181.38;4942638;28;20034;-79
2022/10/24 07:24:02;;;;;;;11.70;3.97;;;;;;;15.01;100.00;100169.84;4976271;28;20034;-80
2022/10/24 07:26:31;;;;;;;66.90;11.43;;;;;;;15.10;100.00;100171.63;4977780;28;20030;-79
2022/10/24 07:28:59;;;;;;;24.67;6.25;;;;;;;15.20;100.00;100173.69;4967720;28;20381;-79
2022/10/24 07:31:28;;;;;;;27.70;6.82;;;;;;;15.30;100.00;100179.94;4967044;28;20038;-79
2022/10/24 07:33:55;;;;;;;11.75;3.88;;;;;;;15.37;100.00;100175.72;4979442;28;20065;-83
2022/10/24 07:36:23;;;;;;;7.78;4.07;;;;;;;15.49;100.00;100174.34;4978420;28;20084;-85
2022/10/24 07:38:56;;;;;;;10.32;4.13;;;;;;;15.60;100.00;100180.09;4979409;28;20387;-80
2022/10/24 07:41:25;;;;;;;8.93;3.72;;;;;;;15.71;100.00;100191.59;4995488;28;20018;-81
2022/10/24 07:43:51;;;;;;;5.53;3.33;;;;;;;15.81;100.00;100187.03;4980251;28;20425;-85
2022/10/24 07:46:18;;;;;;;5.93;3.63;;;;;;;15.89;100.00;100188.06;4996588;28;20027;-83
2022/10/24 07:48:43;;;;;;;4.45;2.72;;;;;;;15.89;100.00;100182.31;4995602;28;20395;-84
2022/10/24 07:51:12;;;;;;;11.63;3.55;;;;;;;16.01;100.00;100178.00;4997940;28;20026;-81
2022/10/24 07:53:40;;;;;;;8.40;2.90;;;;;;;16.12;100.00;100186.59;4994870;28;20105;-80
2022/10/24 07:56:09;;;;;;;4.68;2.90;;;;;;;16.22;100.00;100204.34;4994722;28;20026;-83
2022/10/24 07:58:35;;;;;;;7.50;2.90;;;;;;;16.24;100.00;100198.84;4977866;28;20027;-83
2022/10/24 08:01:11;;;;;;;7.88;2.70;;;;;;;16.46;100.00;100203.63;4961330;28;20046;-81
2022/10/24 08:03:37;;;;;;;10.25;3.25;;;;;;;16.59;100.00;100183.66;4993369;28;20030;-80
2022/10/24 08:06:11;;;;;;;9.18;2.88;;;;;;;16.83;100.00;100191.56;4994591;28;20124;-83
2022/10/24 08:08:38;;;;;;;8.90;2.83;;;;;;;17.05;100.00;100185.53;4993470;28;20034;-83
2022/10/24 08:11:17;;;;;;;6.70;3.05;;;;;;;17.29;100.00;100193.44;4977258;28;20030;-82
2022/10/24 08:13:43;;;;;;;10.70;3.50;;;;;;;17.42;100.00;100188.53;4949704;28;113197;-85
2022/10/24 08:16:10;;;;;;;7.93;3.20;;;;;;;17.47;100.00;100189.81;4838504;29;2088289;-83
2022/10/24 08:18:39;;;;;;;8.45;3.40;;;;;;;17.55;100.00;100187.06;4901084;29;20043;-78
2022/10/24 08:21:08;;;;;;;6.22;2.35;;;;;;;17.51;100.00;100180.84;4904041;29;20032;-80
2022/10/24 08:23:36;;;;;;;9.27;2.83;;;;;;;17.35;100.00;100162.34;4882085;29;20032;-80
2022/10/24 08:26:07;;;;;;;7.78;3.25;;;;;;;17.50;100.00;100176.38;4897548;29;20488;-81
2022/10/24 08:28:34;;;;;;;13.23;3.28;;;;;;;17.50;100.00;100187.94;4866379;29;20040;-78
2022/10/24 08:31:11;;;;;;;5.20;2.50;;;;;;;17.50;100.00;100188.72;4881798;29;20037;-78
2022/10/24 08:33:36;;;;;;;12.93;3.35;;;;;;;17.50;100.00;100179.25;4912936;29;20036;-77
2022/10/24 08:36:06;;;;;;;29.80;5.15;;;;;;;17.37;100.00;100153.94;4897516;29;20382;-77
2022/10/24 08:38:32;;;;;;;12.63;4.15;;;;;;;17.61;100.00;100174.13;4881888;29;20036;-78
2022/10/24 08:40:59;;;;;;;4.97;2.33;;;;;;;17.64;100.00;100175.13;4898879;29;20024;-78
2022/10/24 08:43:45;;;;;;;14.43;3.95;;;;;;;17.70;100.00;100173.75;4898433;29;20035;-80
2022/10/24 08:46:22;;;;;;;21.75;3.67;;;;;;;17.72;100.00;100174.00;4897284;29;20040;-78
2022/10/24 08:48:55;;;;;;;4.95;2.13;;;;;;;17.72;100.00;100171.09;4899230;29;20108;-79
2022/10/24 08:51:39;;;;;;;4.28;1.92;;;;;;;17.81;100.00;100176.47;4885454;29;20059;-80
2022/10/24 08:54:12;;;;;;;16.10;3.33;;;;;;;17.94;100.00;100177.88;4902019;29;20064;-77
2022/10/24 08:56:46;;;;;;;32.22;5.55;;;;;;;18.05;100.00;100178.50;4902221;29;20111;-76
2022/10/24 08:59:15;;;;;;;18.00;2.63;;;;;;;18.14;100.00;100171.53;4900748;29;20103;-79
2022/10/24 09:01:48;;;;;;;7.53;2.50;;;;;;;18.10;100.00;100139.25;4902010;29;20025;-73
2022/10/24 09:04:18;;;;;;;7.07;2.00;;;;;;;18.47;100.00;100173.94;4975893;23;20057;-78
2022/10/24 09:06:46;;;;;;;6.72;2.03;;;;;;;18.62;100.00;100182.09;4885019;29;20035;-77
2022/10/24 09:09:28;;;;;;;8.02;2.35;;;;;;;18.76;100.00;100168.44;4900097;29;20140;-77
2022/10/24 09:12:12;;;;;;;10.15;2.80;;;;;;;18.86;100.00;100167.44;4897458;29;20033;-77
2022/10/24 09:14:42;;;;;;;21.17;4.43;;;;;;;18.94;100.00;100165.44;4882134;29;20033;-77
2022/10/24 09:17:33;;;;;;;38.60;6.00;;;;;;;18.98;100.00;100171.69;4866868;29;20053;-76
2022/10/24 09:20:14;;;;;;;25.20;4.10;;;;;;;18.97;100.00;100178.03;4881801;29;20029;-77
2022/10/24 09:22:43;;;;;;;27.77;5.15;;;;;;;19.01;100.00;100173.47;4881802;29;20032;-78
2022/10/24 09:25:16;;;;;;;16.70;3.65;;;;;;;18.99;100.00;100175.38;4883027;29;20037;-76
2022/10/24 09:27:43;;;;;;;7.07;2.17;;;;;;;18.96;100.00;100173.59;4882766;29;20442;-78
2022/10/24 09:30:34;;;;;;;11.70;2.65;;;;;;;18.89;100.00;100175.00;4882777;29;20166;-76
2022/10/24 09:33:06;;;;;;;;;;;;;;;18.87;100.00;100169.00;4881571;29;20040;-74
2022/10/24 09:35:37;;;;;;;5.30;1.98;;;;;;;18.85;100.00;100179.56;4897552;29;19919;-76
2022/10/24 09:38:24;;;;;;;7.72;2.25;;;;;;;18.90;100.00;100175.81;4889827;29;20036;-77
2022/10/24 09:40:57;;;;;;;3.40;1.92;;;;;;;18.88;100.00;100172.66;4901626;29;20103;-78
2022/10/24 09:43:49;;;;;;;29.33;4.45;;;;;;;18.93;100.00;100175.47;4900234;29;20453;-79
2022/10/24 09:46:21;;;;;;;28.90;3.70;;;;;;;18.93;100.00;100183.38;4901522;29;20100;-76
2022/10/24 09:49:02;;;;;;;37.78;5.78;;;;;;;18.95;100.00;100172.81;4901259;29;20040;-77
2022/10/24 09:51:51;;;;;;;21.33;5.18;;;;;;;19.01;100.00;100178.50;4899068;29;20029;-77
2022/10/24 09:54:20;;;;;;;6.65;2.00;;;;;;;19.01;100.00;100179.28;4898796;29;20409;-78
2022/10/24 09:56:48;;;;;;;5.22;1.85;;;;;;;19.00;100.00;100182.72;4901347;29;20057;-79
2022/10/24 09:59:32;;;;;;;65.65;11.57;;;;;;;18.97;100.00;100183.81;4900575;29;20036;-77
2022/10/24 10:02:12;;;;;;;18.77;2.60;;;;;;;18.94;100.00;100179.94;4901407;29;20017;-77
2022/10/24 10:04:40;;;;;;;47.95;8.07;;;;;;;19.00;100.00;100183.50;4900693;29;20136;-76
2022/10/24 10:07:13;;;;;;;73.80;11.75;;;;;;;19.07;100.00;100182.03;4899350;29;20036;-76
2022/10/24 10:09:56;;;;;;;60.05;8.15;;;;;;;19.11;100.00;100174.59;4899719;29;20495;-74
2022/10/24 10:12:40;;;;;;;49.03;7.50;;;;;;;19.17;100.00;100177.41;4900550;29;20037;-75
2022/10/24 10:15:59;;;;;;;25.20;4.35;;;;;;;19.19;100.00;100176.84;4900801;29;20025;-76
2022/10/24 10:18:45;;;;;;;12.27;3.15;;;;;;;19.29;100.00;100178.75;4888930;29;20036;-78
2022/10/24 10:21:18;;;;;;;23.27;4.13;;;;;;;19.38;100.00;100160.91;4899880;29;20025;-83
2022/10/24 10:23:50;;;;;;;16.40;2.92;;;;;;;19.48;100.00;100159.13;4901957;29;20058;-79
2022/10/24 10:26:29;;;;;;;6.07;2.28;;;;;;;19.62;100.00;100159.88;4899396;29;20425;-78
2022/10/24 10:29:05;;;;;;;5.40;1.73;;;;;;;19.76;100.00;100157.72;4899327;29;20478;-79
2022/10/24 10:31:39;;;;;;;7.13;2.20;;;;;;;19.93;100.00;100161.84;4900599;29;20039;-79
2022/10/24 10:34:24;;;;;;;6.60;1.95;;;;;;;20.06;100.00;100157.34;4899331;29;20351;-75
2022/10/24 10:37:03;;;;;;;32.47;6.47;;;;;;;20.28;100.00;100154.69;4900099;29;20374;-75
2022/10/24 10:39:46;;;;;;;5.53;2.50;;;;;;;20.47;100.00;100151.56;4900568;29;20092;-76
2022/10/24 10:42:54;;;;;;;12.65;2.08;;;;;;;20.61;100.00;100158.88;4898800;29;20035;-76
2022/10/24 10:45:38;;;;;;;17.10;3.85;;;;;;;20.77;100.00;100165.63;4899970;29;20370;-77
2022/10/24 10:48:12;;;;;;;7.03;2.05;;;;;;;20.83;98.32;100165.47;4900194;29;20020;-75
2022/10/24 10:50:52;;;;;;;263.83;35.97;;;;;;;20.87;98.80;100160.84;4899838;29;20025;-77
2022/10/24 10:53:37;;;;;;;5.28;1.98;;;;;;;20.81;97.92;100161.00;4898800;29;20084;-76
2022/10/24 10:56:22;;;;;;;14.95;2.97;;;;;;;20.79;99.60;100154.22;4900115;29;20085;-77
2022/10/24 10:59:26;;;;;;;240.73;32.13;;;;;;;20.74;100.00;100158.81;4898932;29;20028;-73
2022/10/24 11:02:27;;;;;;;63.13;9.77;;;;;;;20.67;100.00;100147.88;4860703;29;20041;-79
2022/10/24 11:05:15;;;;;;;24.10;4.50;;;;;;;20.62;100.00;100148.81;4860504;29;20124;-75
2022/10/24 11:08:16;;;;;;;22.05;3.67;;;;;;;20.52;100.00;100144.06;4860435;29;20390;-75
2022/10/24 11:10:48;;;;;;;68.90;8.50;;;;;;;20.42;100.00;100143.00;4860025;29;20030;-78
2022/10/24 11:13:22;;;;;;;244.45;33.05;;;;;;;20.32;100.00;100142.72;4871958;29;20782;-75
2022/10/24 11:15:52;;;;;;;130.50;16.75;;;;;;;20.25;100.00;100149.25;4898479;29;20064;-75
2022/10/24 11:18:26;;;;;;;42.40;6.18;;;;;;;20.17;100.00;100146.25;4899876;29;20087;-75
2022/10/24 11:21:23;;;;;;;16.15;4.20;;;;;;;20.06;100.00;100140.69;4883047;29;20029;-76
2022/10/24 11:24:14;;;;;;;91.97;11.50;;;;;;;20.05;100.00;100132.59;4865112;29;20033;-78
2022/10/24 11:26:46;;;;;;;8.95;2.45;;;;;;;19.98;100.00;100124.56;4898295;29;20036;-75
2022/10/24 11:29:19;;;;;;;;;;;;;;;20.00;100.00;100119.78;4899940;29;20111;-75